sensor_id;sensor_type;location;lat;lon;timestamp;P1;durP1;ratioP1;P2;durP2;ratioP2
11090;SDS011;5599;52.210;21.046;2022-07-05T00:00:04;8.60;;;7.45;;
11090;SDS011;5599;52.210;21.046;2022-07-05T00:02:39;8.02;;;7.43;;
11090;SDS011;5599;52.210;21.046;2022-07-05T00:05:09;10.45;;;7.97;;
11090;SDS011;5599;52.210;21.046;2022-07-05T00:07:37;8.73;;;8.02;;
11090;SDS011;5599;52.210;21.046;2022-07-05T00:10:07;8.43;;;7.63;;
11090;SDS011;5599;52.210;21.046;2022-07-05T00:12:36;8.05;;;7.25;;
11090;SDS011;5599;52.210;21.046;2022-07-05T00:15:06;8.90;;;7.53;;
11090;SDS011;5599;52.210;21.046;2022-07-05T00:17:36;7.93;;;7.22;;
11090;SDS011;5599;52.210;21.046;2022-07-05T00:20:07;8.55;;;7.38;;
11090;SDS011;5599;52.210;21.046;2022-07-05T00:22:37;7.40;;;6.72;;
11090;SDS011;5599;52.210;21.046;2022-07-05T00:25:06;7.53;;;6.88;;
11090;SDS011;5599;52.210;21.046;2022-07-05T00:27:35;7.78;;;6.72;;
11090;SDS011;5599;52.210;21.046;2022-07-05T00:30:04;9.18;;;6.35;;
11090;SDS011;5599;52.210;21.046;2022-07-05T00:32:34;6.85;;;6.15;;
11090;SDS011;5599;52.210;21.046;2022-07-05T00:35:05;6.47;;;5.82;;
11090;SDS011;5599;52.210;21.046;2022-07-05T00:37:35;8.13;;;6.28;;
11090;SDS011;5599;52.210;21.046;2022-07-05T00:40:05;7.20;;;5.97;;
11090;SDS011;5599;52.210;21.046;2022-07-05T00:42:36;6.55;;;5.88;;
11090;SDS011;5599;52.210;21.046;2022-07-05T00:45:05;6.40;;;5.80;;
11090;SDS011;5599;52.210;21.046;2022-07-05T00:47:36;6.40;;;5.78;;
11090;SDS011;5599;52.210;21.046;2022-07-05T00:50:07;6.90;;;6.25;;
11090;SDS011;5599;52.210;21.046;2022-07-05T00:52:36;7.10;;;6.50;;
11090;SDS011;5599;52.210;21.046;2022-07-05T00:55:06;7.40;;;6.38;;
11090;SDS011;5599;52.210;21.046;2022-07-05T00:57:36;7.45;;;6.60;;
11090;SDS011;5599;52.210;21.046;2022-07-05T01:00:06;7.80;;;7.07;;
11090;SDS011;5599;52.210;21.046;2022-07-05T01:02:36;7.85;;;7.15;;
11090;SDS011;5599;52.210;21.046;2022-07-05T01:05:06;7.35;;;6.65;;
11090;SDS011;5599;52.210;21.046;2022-07-05T01:07:35;9.15;;;7.32;;
11090;SDS011;5599;52.210;21.046;2022-07-05T01:10:05;8.05;;;7.10;;
11090;SDS011;5599;52.210;21.046;2022-07-05T01:12:34;9.68;;;7.60;;
11090;SDS011;5599;52.210;21.046;2022-07-05T01:15:06;7.55;;;6.82;;
11090;SDS011;5599;52.210;21.046;2022-07-05T01:17:37;7.55;;;6.85;;
11090;SDS011;5599;52.210;21.046;2022-07-05T01:20:08;7.50;;;6.80;;
11090;SDS011;5599;52.210;21.046;2022-07-05T01:22:51;7.95;;;7.13;;
11090;SDS011;5599;52.210;21.046;2022-07-05T01:25:20;7.63;;;7.03;;
11090;SDS011;5599;52.210;21.046;2022-07-05T01:27:50;7.25;;;6.65;;
11090;SDS011;5599;52.210;21.046;2022-07-05T01:30:20;9.25;;;7.43;;
11090;SDS011;5599;52.210;21.046;2022-07-05T01:32:50;7.93;;;7.15;;
11090;SDS011;5599;52.210;21.046;2022-07-05T01:35:19;7.30;;;6.60;;
11090;SDS011;5599;52.210;21.046;2022-07-05T01:37:48;8.57;;;7.22;;
11090;SDS011;5599;52.210;21.046;2022-07-05T01:40:19;7.18;;;6.32;;
11090;SDS011;5599;52.210;21.046;2022-07-05T01:42:48;6.88;;;6.28;;
11090;SDS011;5599;52.210;21.046;2022-07-05T01:45:17;7.22;;;6.53;;
11090;SDS011;5599;52.210;21.046;2022-07-05T01:48:00;7.03;;;6.20;;
11090;SDS011;5599;52.210;21.046;2022-07-05T01:50:31;7.05;;;6.45;;
11090;SDS011;5599;52.210;21.046;2022-07-05T01:53:06;7.70;;;6.70;;
11090;SDS011;5599;52.210;21.046;2022-07-05T01:55:38;7.28;;;6.63;;
11090;SDS011;5599;52.210;21.046;2022-07-05T01:58:08;8.60;;;7.05;;
11090;SDS011;5599;52.210;21.046;2022-07-05T02:00:43;7.60;;;7.07;;
11090;SDS011;5599;52.210;21.046;2022-07-05T02:03:14;7.67;;;6.97;;
11090;SDS011;5599;52.210;21.046;2022-07-05T02:06:04;8.00;;;6.95;;
11090;SDS011;5599;52.210;21.046;2022-07-05T02:08:36;7.75;;;7.05;;
11090;SDS011;5599;52.210;21.046;2022-07-05T02:11:08;7.13;;;6.60;;
11090;SDS011;5599;52.210;21.046;2022-07-05T02:13:38;7.72;;;6.55;;
11090;SDS011;5599;52.210;21.046;2022-07-05T02:16:08;8.33;;;7.43;;
11090;SDS011;5599;52.210;21.046;2022-07-05T02:18:37;7.83;;;7.03;;
11090;SDS011;5599;52.210;21.046;2022-07-05T02:21:07;8.53;;;7.73;;
11090;SDS011;5599;52.210;21.046;2022-07-05T02:23:38;10.20;;;7.97;;
11090;SDS011;5599;52.210;21.046;2022-07-05T02:26:08;7.90;;;7.10;;
11090;SDS011;5599;52.210;21.046;2022-07-05T02:28:39;7.90;;;7.20;;
11090;SDS011;5599;52.210;21.046;2022-07-05T02:31:10;8.77;;;7.03;;
11090;SDS011;5599;52.210;21.046;2022-07-05T02:33:40;7.30;;;6.70;;
11090;SDS011;5599;52.210;21.046;2022-07-05T02:36:10;7.37;;;6.70;;
11090;SDS011;5599;52.210;21.046;2022-07-05T02:38:42;7.90;;;7.10;;
11090;SDS011;5599;52.210;21.046;2022-07-05T02:41:12;8.03;;;7.23;;
11090;SDS011;5599;52.210;21.046;2022-07-05T02:43:44;8.07;;;7.37;;
11090;SDS011;5599;52.210;21.046;2022-07-05T02:46:15;7.40;;;6.67;;
11090;SDS011;5599;52.210;21.046;2022-07-05T02:48:44;7.27;;;6.60;;
11090;SDS011;5599;52.210;21.046;2022-07-05T02:51:14;7.43;;;6.73;;
11090;SDS011;5599;52.210;21.046;2022-07-05T02:53:48;7.20;;;6.60;;
11090;SDS011;5599;52.210;21.046;2022-07-05T02:56:17;7.37;;;6.77;;
11090;SDS011;5599;52.210;21.046;2022-07-05T02:58:47;7.13;;;6.53;;
11090;SDS011;5599;52.210;21.046;2022-07-05T03:01:18;7.33;;;6.63;;
11090;SDS011;5599;52.210;21.046;2022-07-05T03:03:48;7.57;;;6.77;;
11090;SDS011;5599;52.210;21.046;2022-07-05T03:06:19;7.93;;;6.80;;
11090;SDS011;5599;52.210;21.046;2022-07-05T03:08:50;7.00;;;6.50;;
11090;SDS011;5599;52.210;21.046;2022-07-05T03:11:20;8.25;;;7.05;;
11090;SDS011;5599;52.210;21.046;2022-07-05T03:13:49;11.73;;;7.30;;
11090;SDS011;5599;52.210;21.046;2022-07-05T03:16:19;10.23;;;6.53;;
11090;SDS011;5599;52.210;21.046;2022-07-05T03:18:50;12.68;;;6.47;;
11090;SDS011;5599;52.210;21.046;2022-07-05T03:21:20;10.38;;;6.47;;
11090;SDS011;5599;52.210;21.046;2022-07-05T03:23:51;7.20;;;6.38;;
11090;SDS011;5599;52.210;21.046;2022-07-05T03:26:20;6.13;;;5.60;;
11090;SDS011;5599;52.210;21.046;2022-07-05T03:28:49;8.15;;;6.13;;
11090;SDS011;5599;52.210;21.046;2022-07-05T03:31:19;7.55;;;6.32;;
11090;SDS011;5599;52.210;21.046;2022-07-05T03:33:50;6.80;;;6.20;;
11090;SDS011;5599;52.210;21.046;2022-07-05T03:36:19;6.97;;;5.93;;
11090;SDS011;5599;52.210;21.046;2022-07-05T03:38:48;7.30;;;6.10;;
11090;SDS011;5599;52.210;21.046;2022-07-05T03:41:20;6.80;;;6.00;;
11090;SDS011;5599;52.210;21.046;2022-07-05T03:43:51;6.57;;;5.97;;
11090;SDS011;5599;52.210;21.046;2022-07-05T03:46:20;6.87;;;6.10;;
11090;SDS011;5599;52.210;21.046;2022-07-05T03:48:49;6.75;;;6.13;;
11090;SDS011;5599;52.210;21.046;2022-07-05T03:51:19;6.63;;;6.13;;
11090;SDS011;5599;52.210;21.046;2022-07-05T03:53:49;6.40;;;5.80;;
11090;SDS011;5599;52.210;21.046;2022-07-05T03:56:18;6.32;;;5.82;;
11090;SDS011;5599;52.210;21.046;2022-07-05T03:58:53;7.20;;;6.35;;
11090;SDS011;5599;52.210;21.046;2022-07-05T04:01:23;6.20;;;5.70;;
11090;SDS011;5599;52.210;21.046;2022-07-05T04:03:54;6.07;;;5.57;;
11090;SDS011;5599;52.210;21.046;2022-07-05T04:06:26;6.87;;;5.50;;
11090;SDS011;5599;52.210;21.046;2022-07-05T04:08:59;6.43;;;5.80;;
11090;SDS011;5599;52.210;21.046;2022-07-05T04:11:28;7.23;;;5.83;;
11090;SDS011;5599;52.210;21.046;2022-07-05T04:13:59;10.23;;;6.60;;
11090;SDS011;5599;52.210;21.046;2022-07-05T04:16:29;6.47;;;5.87;;
11090;SDS011;5599;52.210;21.046;2022-07-05T04:19:01;7.90;;;6.10;;
11090;SDS011;5599;52.210;21.046;2022-07-05T04:21:33;7.87;;;5.93;;
11090;SDS011;5599;52.210;21.046;2022-07-05T04:24:03;9.68;;;6.38;;
11090;SDS011;5599;52.210;21.046;2022-07-05T04:26:32;6.10;;;5.37;;
11090;SDS011;5599;52.210;21.046;2022-07-05T04:29:03;6.83;;;5.63;;
11090;SDS011;5599;52.210;21.046;2022-07-05T04:31:36;6.60;;;5.90;;
11090;SDS011;5599;52.210;21.046;2022-07-05T04:34:06;7.27;;;5.40;;
11090;SDS011;5599;52.210;21.046;2022-07-05T04:36:40;7.00;;;5.73;;
11090;SDS011;5599;52.210;21.046;2022-07-05T04:39:09;6.03;;;5.43;;
11090;SDS011;5599;52.210;21.046;2022-07-05T04:41:46;6.60;;;5.83;;
11090;SDS011;5599;52.210;21.046;2022-07-05T04:44:16;5.67;;;5.17;;
11090;SDS011;5599;52.210;21.046;2022-07-05T04:46:45;6.20;;;5.47;;
11090;SDS011;5599;52.210;21.046;2022-07-05T04:49:15;5.97;;;5.47;;
11090;SDS011;5599;52.210;21.046;2022-07-05T04:51:44;6.07;;;5.10;;
11090;SDS011;5599;52.210;21.046;2022-07-05T04:54:13;5.87;;;5.27;;
11090;SDS011;5599;52.210;21.046;2022-07-05T04:56:42;5.90;;;5.40;;
11090;SDS011;5599;52.210;21.046;2022-07-05T04:59:11;8.77;;;6.10;;
11090;SDS011;5599;52.210;21.046;2022-07-05T05:01:42;5.50;;;5.00;;
11090;SDS011;5599;52.210;21.046;2022-07-05T05:04:11;5.90;;;4.87;;
11090;SDS011;5599;52.210;21.046;2022-07-05T05:06:40;7.05;;;5.07;;
11090;SDS011;5599;52.210;21.046;2022-07-05T05:09:09;7.20;;;5.25;;
11090;SDS011;5599;52.210;21.046;2022-07-05T05:11:39;5.45;;;4.88;;
11090;SDS011;5599;52.210;21.046;2022-07-05T05:14:08;7.53;;;5.38;;
11090;SDS011;5599;52.210;21.046;2022-07-05T05:16:37;5.95;;;4.75;;
11090;SDS011;5599;52.210;21.046;2022-07-05T05:19:07;9.63;;;5.20;;
11090;SDS011;5599;52.210;21.046;2022-07-05T05:21:36;5.22;;;4.57;;
11090;SDS011;5599;52.210;21.046;2022-07-05T05:24:06;12.98;;;6.05;;
11090;SDS011;5599;52.210;21.046;2022-07-05T05:26:35;5.38;;;4.80;;
11090;SDS011;5599;52.210;21.046;2022-07-05T05:29:05;5.63;;;5.03;;
11090;SDS011;5599;52.210;21.046;2022-07-05T05:31:34;5.05;;;4.13;;
11090;SDS011;5599;52.210;21.046;2022-07-05T05:34:03;7.85;;;4.50;;
11090;SDS011;5599;52.210;21.046;2022-07-05T05:36:34;5.60;;;4.32;;
11090;SDS011;5599;52.210;21.046;2022-07-05T05:39:03;5.22;;;4.75;;
11090;SDS011;5599;52.210;21.046;2022-07-05T05:41:33;5.80;;;5.18;;
11090;SDS011;5599;52.210;21.046;2022-07-05T05:44:02;8.38;;;5.43;;
11090;SDS011;5599;52.210;21.046;2022-07-05T05:46:32;6.93;;;6.22;;
11090;SDS011;5599;52.210;21.046;2022-07-05T05:49:01;7.93;;;5.85;;
11090;SDS011;5599;52.210;21.046;2022-07-05T05:51:31;5.25;;;4.75;;
11090;SDS011;5599;52.210;21.046;2022-07-05T05:54:03;5.32;;;4.43;;
11090;SDS011;5599;52.210;21.046;2022-07-05T05:56:32;6.68;;;4.45;;
11090;SDS011;5599;52.210;21.046;2022-07-05T05:59:01;5.40;;;4.78;;
11090;SDS011;5599;52.210;21.046;2022-07-05T06:01:31;9.35;;;5.28;;
11090;SDS011;5599;52.210;21.046;2022-07-05T06:04:00;6.93;;;4.97;;
11090;SDS011;5599;52.210;21.046;2022-07-05T06:06:30;4.85;;;4.30;;
11090;SDS011;5599;52.210;21.046;2022-07-05T06:08:59;5.80;;;4.43;;
11090;SDS011;5599;52.210;21.046;2022-07-05T06:11:29;6.50;;;4.60;;
11090;SDS011;5599;52.210;21.046;2022-07-05T06:13:58;6.43;;;4.45;;
11090;SDS011;5599;52.210;21.046;2022-07-05T06:16:28;5.05;;;4.38;;
11090;SDS011;5599;52.210;21.046;2022-07-05T06:18:57;5.07;;;4.57;;
11090;SDS011;5599;52.210;21.046;2022-07-05T06:21:27;5.75;;;3.97;;
11090;SDS011;5599;52.210;21.046;2022-07-05T06:23:56;5.38;;;4.22;;
11090;SDS011;5599;52.210;21.046;2022-07-05T06:26:25;4.43;;;4.03;;
11090;SDS011;5599;52.210;21.046;2022-07-05T06:28:56;6.93;;;4.13;;
11090;SDS011;5599;52.210;21.046;2022-07-05T06:31:25;7.88;;;3.65;;
11090;SDS011;5599;52.210;21.046;2022-07-05T06:33:54;6.50;;;4.60;;
11090;SDS011;5599;52.210;21.046;2022-07-05T06:36:23;9.32;;;4.55;;
11090;SDS011;5599;52.210;21.046;2022-07-05T06:38:53;6.55;;;4.28;;
11090;SDS011;5599;52.210;21.046;2022-07-05T06:41:22;5.57;;;3.97;;
11090;SDS011;5599;52.210;21.046;2022-07-05T06:43:52;5.95;;;3.50;;
11090;SDS011;5599;52.210;21.046;2022-07-05T06:46:43;4.45;;;3.38;;
11090;SDS011;5599;52.210;21.046;2022-07-05T06:49:12;4.15;;;3.60;;
11090;SDS011;5599;52.210;21.046;2022-07-05T06:51:42;4.00;;;3.60;;
11090;SDS011;5599;52.210;21.046;2022-07-05T06:54:12;3.70;;;3.30;;
11090;SDS011;5599;52.210;21.046;2022-07-05T06:57:02;4.93;;;3.40;;
11090;SDS011;5599;52.210;21.046;2022-07-05T06:59:52;7.60;;;3.40;;
11090;SDS011;5599;52.210;21.046;2022-07-05T07:02:24;3.75;;;3.45;;
11090;SDS011;5599;52.210;21.046;2022-07-05T07:04:54;5.35;;;3.35;;
11090;SDS011;5599;52.210;21.046;2022-07-05T07:07:41;3.83;;;2.90;;
11090;SDS011;5599;52.210;21.046;2022-07-05T07:10:27;6.63;;;3.53;;
11090;SDS011;5599;52.210;21.046;2022-07-05T07:12:57;4.00;;;3.35;;
11090;SDS011;5599;52.210;21.046;2022-07-05T07:15:27;4.35;;;3.63;;
11090;SDS011;5599;52.210;21.046;2022-07-05T07:18:00;3.22;;;3.00;;
11090;SDS011;5599;52.210;21.046;2022-07-05T07:20:29;5.75;;;3.25;;
11090;SDS011;5599;52.210;21.046;2022-07-05T07:22:59;5.47;;;3.30;;
11090;SDS011;5599;52.210;21.046;2022-07-05T07:25:28;7.45;;;3.30;;
11090;SDS011;5599;52.210;21.046;2022-07-05T07:27:57;3.50;;;3.20;;
11090;SDS011;5599;52.210;21.046;2022-07-05T07:30:27;4.80;;;3.42;;
11090;SDS011;5599;52.210;21.046;2022-07-05T07:32:57;4.50;;;3.30;;
11090;SDS011;5599;52.210;21.046;2022-07-05T07:35:32;3.60;;;3.30;;
11090;SDS011;5599;52.210;21.046;2022-07-05T07:38:01;5.63;;;3.70;;
11090;SDS011;5599;52.210;21.046;2022-07-05T07:40:30;3.42;;;3.10;;
11090;SDS011;5599;52.210;21.046;2022-07-05T07:42:59;6.03;;;4.22;;
11090;SDS011;5599;52.210;21.046;2022-07-05T07:45:28;4.93;;;3.40;;
11090;SDS011;5599;52.210;21.046;2022-07-05T07:48:00;4.72;;;3.30;;
11090;SDS011;5599;52.210;21.046;2022-07-05T07:50:29;4.90;;;3.25;;
11090;SDS011;5599;52.210;21.046;2022-07-05T07:52:58;4.30;;;3.28;;
11090;SDS011;5599;52.210;21.046;2022-07-05T07:55:27;4.00;;;3.20;;
11090;SDS011;5599;52.210;21.046;2022-07-05T07:57:57;6.57;;;3.42;;
11090;SDS011;5599;52.210;21.046;2022-07-05T08:00:26;5.40;;;3.03;;
11090;SDS011;5599;52.210;21.046;2022-07-05T08:02:56;3.85;;;3.28;;
11090;SDS011;5599;52.210;21.046;2022-07-05T08:05:27;5.38;;;3.65;;
11090;SDS011;5599;52.210;21.046;2022-07-05T08:07:56;4.22;;;3.50;;
11090;SDS011;5599;52.210;21.046;2022-07-05T08:10:26;4.80;;;3.45;;
11090;SDS011;5599;52.210;21.046;2022-07-05T08:13:01;3.72;;;3.20;;
11090;SDS011;5599;52.210;21.046;2022-07-05T08:15:30;6.22;;;3.30;;
11090;SDS011;5599;52.210;21.046;2022-07-05T08:18:00;4.30;;;3.53;;
11090;SDS011;5599;52.210;21.046;2022-07-05T08:20:48;5.00;;;3.80;;
11090;SDS011;5599;52.210;21.046;2022-07-05T08:23:34;4.07;;;2.90;;
11090;SDS011;5599;52.210;21.046;2022-07-05T08:26:04;7.28;;;3.30;;
11090;SDS011;5599;52.210;21.046;2022-07-05T08:28:33;6.18;;;3.72;;
11090;SDS011;5599;52.210;21.046;2022-07-05T08:31:22;6.03;;;3.00;;
11090;SDS011;5599;52.210;21.046;2022-07-05T08:33:52;6.95;;;3.15;;
11090;SDS011;5599;52.210;21.046;2022-07-05T08:36:23;9.73;;;3.78;;
11090;SDS011;5599;52.210;21.046;2022-07-05T08:38:52;4.32;;;2.95;;
11090;SDS011;5599;52.210;21.046;2022-07-05T08:41:22;6.60;;;4.00;;
11090;SDS011;5599;52.210;21.046;2022-07-05T08:43:51;5.88;;;3.42;;
11090;SDS011;5599;52.210;21.046;2022-07-05T08:46:21;9.43;;;5.00;;
11090;SDS011;5599;52.210;21.046;2022-07-05T08:48:54;5.88;;;4.95;;
11090;SDS011;5599;52.210;21.046;2022-07-05T08:51:29;6.68;;;5.13;;
11090;SDS011;5599;52.210;21.046;2022-07-05T08:54:01;7.40;;;3.45;;
11090;SDS011;5599;52.210;21.046;2022-07-05T08:56:32;7.93;;;3.17;;
11090;SDS011;5599;52.210;21.046;2022-07-05T08:59:22;4.53;;;3.50;;
11090;SDS011;5599;52.210;21.046;2022-07-05T09:01:52;5.22;;;3.40;;
11090;SDS011;5599;52.210;21.046;2022-07-05T09:04:24;6.45;;;3.50;;
11090;SDS011;5599;52.210;21.046;2022-07-05T09:07:02;5.07;;;3.38;;
11090;SDS011;5599;52.210;21.046;2022-07-05T09:09:36;4.88;;;3.30;;
11090;SDS011;5599;52.210;21.046;2022-07-05T09:12:11;4.47;;;3.35;;
11090;SDS011;5599;52.210;21.046;2022-07-05T09:14:57;3.22;;;2.92;;
11090;SDS011;5599;52.210;21.046;2022-07-05T09:17:26;9.30;;;3.22;;
11090;SDS011;5599;52.210;21.046;2022-07-05T09:20:07;4.03;;;3.63;;
11090;SDS011;5599;52.210;21.046;2022-07-05T09:22:48;5.03;;;3.30;;
11090;SDS011;5599;52.210;21.046;2022-07-05T09:25:21;6.90;;;3.33;;
11090;SDS011;5599;52.210;21.046;2022-07-05T09:27:53;4.68;;;3.53;;
11090;SDS011;5599;52.210;21.046;2022-07-05T09:30:27;7.78;;;3.83;;
11090;SDS011;5599;52.210;21.046;2022-07-05T09:33:00;4.40;;;3.25;;
11090;SDS011;5599;52.210;21.046;2022-07-05T09:35:32;5.70;;;3.50;;
11090;SDS011;5599;52.210;21.046;2022-07-05T09:38:04;7.90;;;3.63;;
11090;SDS011;5599;52.210;21.046;2022-07-05T09:40:45;6.55;;;3.30;;
11090;SDS011;5599;52.210;21.046;2022-07-05T09:43:17;6.18;;;3.63;;
11090;SDS011;5599;52.210;21.046;2022-07-05T09:45:55;7.00;;;3.70;;
11090;SDS011;5599;52.210;21.046;2022-07-05T09:48:27;12.77;;;4.30;;
11090;SDS011;5599;52.210;21.046;2022-07-05T09:51:07;7.40;;;3.80;;
11090;SDS011;5599;52.210;21.046;2022-07-05T09:53:59;4.82;;;3.20;;
11090;SDS011;5599;52.210;21.046;2022-07-05T09:56:44;6.55;;;3.38;;
11090;SDS011;5599;52.210;21.046;2022-07-05T09:59:16;10.02;;;3.33;;
11090;SDS011;5599;52.210;21.046;2022-07-05T10:01:48;5.63;;;3.20;;
11090;SDS011;5599;52.210;21.046;2022-07-05T10:04:18;6.00;;;3.55;;
11090;SDS011;5599;52.210;21.046;2022-07-05T10:06:48;7.38;;;3.28;;
11090;SDS011;5599;52.210;21.046;2022-07-05T10:09:19;4.22;;;3.10;;
11090;SDS011;5599;52.210;21.046;2022-07-05T10:11:50;5.57;;;3.33;;
11090;SDS011;5599;52.210;21.046;2022-07-05T10:14:20;5.75;;;3.45;;
11090;SDS011;5599;52.210;21.046;2022-07-05T10:16:52;5.88;;;3.00;;
11090;SDS011;5599;52.210;21.046;2022-07-05T10:19:28;4.22;;;3.30;;
11090;SDS011;5599;52.210;21.046;2022-07-05T10:22:02;4.00;;;3.10;;
11090;SDS011;5599;52.210;21.046;2022-07-05T10:24:49;5.03;;;3.17;;
11090;SDS011;5599;52.210;21.046;2022-07-05T10:27:20;4.15;;;3.75;;
11090;SDS011;5599;52.210;21.046;2022-07-05T10:29:52;3.70;;;3.35;;
11090;SDS011;5599;52.210;21.046;2022-07-05T10:32:25;5.25;;;3.30;;
11090;SDS011;5599;52.210;21.046;2022-07-05T10:34:57;4.47;;;3.33;;
11090;SDS011;5599;52.210;21.046;2022-07-05T10:37:28;6.22;;;3.15;;
11090;SDS011;5599;52.210;21.046;2022-07-05T10:40:01;7.28;;;3.03;;
11090;SDS011;5599;52.210;21.046;2022-07-05T10:42:33;8.35;;;3.50;;
11090;SDS011;5599;52.210;21.046;2022-07-05T10:50:56;4.50;;;3.25;;
11090;SDS011;5599;52.210;21.046;2022-07-05T10:53:28;7.68;;;3.00;;
11090;SDS011;5599;52.210;21.046;2022-07-05T10:56:20;5.28;;;3.30;;
11090;SDS011;5599;52.210;21.046;2022-07-05T10:58:49;9.10;;;3.70;;
11090;SDS011;5599;52.210;21.046;2022-07-05T11:01:34;4.75;;;3.20;;
11090;SDS011;5599;52.210;21.046;2022-07-05T11:07:05;4.82;;;3.80;;
11090;SDS011;5599;52.210;21.046;2022-07-05T11:09:35;4.05;;;3.03;;
11090;SDS011;5599;52.210;21.046;2022-07-05T11:12:10;3.53;;;3.00;;
11090;SDS011;5599;52.210;21.046;2022-07-05T11:14:55;4.88;;;3.15;;
11090;SDS011;5599;52.210;21.046;2022-07-05T11:17:34;4.28;;;2.80;;
11090;SDS011;5599;52.210;21.046;2022-07-05T11:20:28;4.70;;;2.95;;
11090;SDS011;5599;52.210;21.046;2022-07-05T11:23:06;4.45;;;2.78;;
11090;SDS011;5599;52.210;21.046;2022-07-05T11:25:39;4.28;;;3.00;;
11090;SDS011;5599;52.210;21.046;2022-07-05T11:28:15;3.17;;;2.88;;
11090;SDS011;5599;52.210;21.046;2022-07-05T11:30:48;7.25;;;3.40;;
11090;SDS011;5599;52.210;21.046;2022-07-05T11:33:33;5.80;;;3.05;;
11090;SDS011;5599;52.210;21.046;2022-07-05T11:36:05;5.00;;;3.20;;
11090;SDS011;5599;52.210;21.046;2022-07-05T11:41:44;6.38;;;3.10;;
11090;SDS011;5599;52.210;21.046;2022-07-05T11:44:16;7.60;;;2.70;;
11090;SDS011;5599;52.210;21.046;2022-07-05T11:46:46;4.30;;;2.65;;
11090;SDS011;5599;52.210;21.046;2022-07-05T11:49:20;3.45;;;2.40;;
11090;SDS011;5599;52.210;21.046;2022-07-05T11:51:57;5.47;;;2.60;;
11090;SDS011;5599;52.210;21.046;2022-07-05T11:54:29;5.07;;;2.95;;
11090;SDS011;5599;52.210;21.046;2022-07-05T11:57:01;6.57;;;3.03;;
11090;SDS011;5599;52.210;21.046;2022-07-05T11:59:32;3.10;;;2.80;;
11090;SDS011;5599;52.210;21.046;2022-07-05T12:02:08;5.30;;;2.78;;
11090;SDS011;5599;52.210;21.046;2022-07-05T12:04:38;4.55;;;2.70;;
11090;SDS011;5599;52.210;21.046;2022-07-05T12:07:08;9.98;;;3.13;;
11090;SDS011;5599;52.210;21.046;2022-07-05T12:09:38;2.97;;;2.58;;
11090;SDS011;5599;52.210;21.046;2022-07-05T12:12:25;3.78;;;2.67;;
11090;SDS011;5599;52.210;21.046;2022-07-05T12:15:16;3.63;;;3.00;;
11090;SDS011;5599;52.210;21.046;2022-07-05T12:17:48;5.55;;;3.17;;
11090;SDS011;5599;52.210;21.046;2022-07-05T12:20:20;4.32;;;3.13;;
11090;SDS011;5599;52.210;21.046;2022-07-05T12:22:51;4.13;;;2.80;;
11090;SDS011;5599;52.210;21.046;2022-07-05T12:25:21;2.78;;;2.55;;
11090;SDS011;5599;52.210;21.046;2022-07-05T12:27:53;5.72;;;3.08;;
11090;SDS011;5599;52.210;21.046;2022-07-05T12:30:27;3.00;;;2.70;;
11090;SDS011;5599;52.210;21.046;2022-07-05T12:32:59;3.60;;;3.10;;
11090;SDS011;5599;52.210;21.046;2022-07-05T12:35:30;4.70;;;4.30;;
11090;SDS011;5599;52.210;21.046;2022-07-05T12:38:04;4.80;;;4.40;;
11090;SDS011;5599;52.210;21.046;2022-07-05T12:40:36;3.63;;;3.28;;
11090;SDS011;5599;52.210;21.046;2022-07-05T12:43:07;5.13;;;3.30;;
11090;SDS011;5599;52.210;21.046;2022-07-05T12:45:40;7.35;;;2.90;;
11090;SDS011;5599;52.210;21.046;2022-07-05T12:48:11;4.38;;;2.58;;
11090;SDS011;5599;52.210;21.046;2022-07-05T12:50:45;3.25;;;2.72;;
11090;SDS011;5599;52.210;21.046;2022-07-05T12:53:43;3.85;;;2.95;;
11090;SDS011;5599;52.210;21.046;2022-07-05T12:56:32;3.80;;;2.92;;
11090;SDS011;5599;52.210;21.046;2022-07-05T12:59:39;3.15;;;2.80;;
11090;SDS011;5599;52.210;21.046;2022-07-05T13:02:36;3.60;;;2.50;;
11090;SDS011;5599;52.210;21.046;2022-07-05T13:05:07;5.13;;;3.10;;
11090;SDS011;5599;52.210;21.046;2022-07-05T13:07:41;6.63;;;3.38;;
11090;SDS011;5599;52.210;21.046;2022-07-05T13:10:20;3.33;;;2.60;;
11090;SDS011;5599;52.210;21.046;2022-07-05T13:12:51;3.15;;;2.42;;
11090;SDS011;5599;52.210;21.046;2022-07-05T13:15:21;4.40;;;2.30;;
11090;SDS011;5599;52.210;21.046;2022-07-05T13:17:52;4.78;;;2.63;;
11090;SDS011;5599;52.210;21.046;2022-07-05T13:20:21;3.60;;;2.60;;
11090;SDS011;5599;52.210;21.046;2022-07-05T13:22:51;3.47;;;2.35;;
11090;SDS011;5599;52.210;21.046;2022-07-05T13:25:20;8.48;;;2.75;;
11090;SDS011;5599;52.210;21.046;2022-07-05T13:27:50;3.67;;;2.60;;
11090;SDS011;5599;52.210;21.046;2022-07-05T13:30:20;5.03;;;2.85;;
11090;SDS011;5599;52.210;21.046;2022-07-05T13:32:51;5.30;;;2.75;;
11090;SDS011;5599;52.210;21.046;2022-07-05T13:35:21;3.38;;;2.40;;
11090;SDS011;5599;52.210;21.046;2022-07-05T13:37:51;6.75;;;2.38;;
11090;SDS011;5599;52.210;21.046;2022-07-05T13:40:20;2.92;;;2.47;;
11090;SDS011;5599;52.210;21.046;2022-07-05T13:42:50;7.10;;;2.47;;
11090;SDS011;5599;52.210;21.046;2022-07-05T13:45:20;3.85;;;2.53;;
11090;SDS011;5599;52.210;21.046;2022-07-05T13:47:57;2.53;;;2.17;;
11090;SDS011;5599;52.210;21.046;2022-07-05T13:50:27;5.28;;;2.38;;
11090;SDS011;5599;52.210;21.046;2022-07-05T13:53:03;3.90;;;2.35;;
11090;SDS011;5599;52.210;21.046;2022-07-05T13:55:32;5.47;;;2.35;;
11090;SDS011;5599;52.210;21.046;2022-07-05T13:58:02;3.05;;;2.38;;
11090;SDS011;5599;52.210;21.046;2022-07-05T14:00:31;2.47;;;2.10;;
11090;SDS011;5599;52.210;21.046;2022-07-05T14:03:02;3.28;;;2.10;;
11090;SDS011;5599;52.210;21.046;2022-07-05T14:05:32;2.63;;;2.00;;
11090;SDS011;5599;52.210;21.046;2022-07-05T14:08:02;2.30;;;2.10;;
11090;SDS011;5599;52.210;21.046;2022-07-05T14:10:31;3.35;;;2.22;;
11090;SDS011;5599;52.210;21.046;2022-07-05T14:13:00;4.18;;;2.22;;
11090;SDS011;5599;52.210;21.046;2022-07-05T14:15:30;6.55;;;2.65;;
11090;SDS011;5599;52.210;21.046;2022-07-05T14:17:59;4.65;;;2.50;;
11090;SDS011;5599;52.210;21.046;2022-07-05T14:20:30;6.78;;;2.83;;
11090;SDS011;5599;52.210;21.046;2022-07-05T14:22:59;8.93;;;3.28;;
11090;SDS011;5599;52.210;21.046;2022-07-05T14:25:28;6.78;;;4.03;;
11090;SDS011;5599;52.210;21.046;2022-07-05T14:27:58;4.40;;;4.00;;
11090;SDS011;5599;52.210;21.046;2022-07-05T14:30:28;4.10;;;3.80;;
11090;SDS011;5599;52.210;21.046;2022-07-05T14:32:58;9.77;;;3.50;;
11090;SDS011;5599;52.210;21.046;2022-07-05T14:35:29;9.10;;;4.35;;
11090;SDS011;5599;52.210;21.046;2022-07-05T14:37:59;5.18;;;4.78;;
11090;SDS011;5599;52.210;21.046;2022-07-05T14:40:30;4.93;;;4.43;;
11090;SDS011;5599;52.210;21.046;2022-07-05T14:43:01;4.95;;;4.45;;
11090;SDS011;5599;52.210;21.046;2022-07-05T14:45:31;7.50;;;4.35;;
11090;SDS011;5599;52.210;21.046;2022-07-05T14:48:01;6.65;;;4.70;;
11090;SDS011;5599;52.210;21.046;2022-07-05T14:50:33;5.63;;;4.93;;
11090;SDS011;5599;52.210;21.046;2022-07-05T14:53:02;6.35;;;4.80;;
11090;SDS011;5599;52.210;21.046;2022-07-05T14:55:35;7.07;;;4.82;;
11090;SDS011;5599;52.210;21.046;2022-07-05T14:58:05;7.32;;;4.72;;
11090;SDS011;5599;52.210;21.046;2022-07-05T15:00:34;5.63;;;4.28;;
11090;SDS011;5599;52.210;21.046;2022-07-05T15:03:05;5.05;;;4.10;;
11090;SDS011;5599;52.210;21.046;2022-07-05T15:05:38;5.05;;;4.55;;
11090;SDS011;5599;52.210;21.046;2022-07-05T15:08:08;4.88;;;4.38;;
11090;SDS011;5599;52.210;21.046;2022-07-05T15:10:39;5.20;;;4.20;;
11090;SDS011;5599;52.210;21.046;2022-07-05T15:13:09;5.10;;;4.50;;
11090;SDS011;5599;52.210;21.046;2022-07-05T15:15:39;6.55;;;4.85;;
11090;SDS011;5599;52.210;21.046;2022-07-05T15:18:09;5.10;;;4.43;;
11090;SDS011;5599;52.210;21.046;2022-07-05T15:20:41;4.55;;;4.20;;
11090;SDS011;5599;52.210;21.046;2022-07-05T15:23:10;5.80;;;5.20;;
11090;SDS011;5599;52.210;21.046;2022-07-05T15:25:40;5.70;;;4.22;;
11090;SDS011;5599;52.210;21.046;2022-07-05T15:28:10;6.13;;;4.88;;